sensor_id;sensor_type;location;lat;lon;timestamp;temperature;humidity
12771;DHT22;6449;47.666;9.160;2023-04-15T00:00:50;4.50;99.90
12771;DHT22;6449;47.666;9.160;2023-04-15T00:05:44;4.40;99.90
12771;DHT22;6449;47.666;9.160;2023-04-15T00:10:38;4.30;99.90
12771;DHT22;6449;47.666;9.160;2023-04-15T00:15:32;4.50;99.90
12771;DHT22;6449;47.666;9.160;2023-04-15T00:20:26;4.60;99.90
12771;DHT22;6449;47.666;9.160;2023-04-15T00:25:19;4.40;99.90
12771;DHT22;6449;47.666;9.160;2023-04-15T00:30:12;4.40;99.90
12771;DHT22;6449;47.666;9.160;2023-04-15T00:35:08;4.20;99.90
12771;DHT22;6449;47.666;9.160;2023-04-15T00:40:01;4.10;99.90
12771;DHT22;6449;47.666;9.160;2023-04-15T00:44:56;4.00;99.90
12771;DHT22;6449;47.666;9.160;2023-04-15T00:49:50;3.90;99.90
12771;DHT22;6449;47.666;9.160;2023-04-15T00:54:45;4.00;99.90
12771;DHT22;6449;47.666;9.160;2023-04-15T00:59:38;4.00;99.90
12771;DHT22;6449;47.666;9.160;2023-04-15T01:04:31;3.90;99.90
12771;DHT22;6449;47.666;9.160;2023-04-15T01:09:25;3.90;99.90
12771;DHT22;6449;47.666;9.160;2023-04-15T01:14:20;3.90;99.90
12771;DHT22;6449;47.666;9.160;2023-04-15T01:19:16;3.90;99.90
12771;DHT22;6449;47.666;9.160;2023-04-15T01:24:10;3.80;99.90
12771;DHT22;6449;47.666;9.160;2023-04-15T01:29:06;3.90;99.90
12771;DHT22;6449;47.666;9.160;2023-04-15T01:34:00;3.90;99.90
12771;DHT22;6449;47.666;9.160;2023-04-15T01:38:54;3.80;99.90
12771;DHT22;6449;47.666;9.160;2023-04-15T01:43:49;3.80;99.90
12771;DHT22;6449;47.666;9.160;2023-04-15T01:48:44;3.80;99.90
12771;DHT22;6449;47.666;9.160;2023-04-15T01:53:38;3.70;99.90
12771;DHT22;6449;47.666;9.160;2023-04-15T01:58:31;3.60;99.90
12771;DHT22;6449;47.666;9.160;2023-04-15T02:03:25;3.50;99.90
12771;DHT22;6449;47.666;9.160;2023-04-15T02:08:20;3.50;99.90
12771;DHT22;6449;47.666;9.160;2023-04-15T02:13:13;3.50;99.90
12771;DHT22;6449;47.666;9.160;2023-04-15T02:18:07;3.40;99.90
12771;DHT22;6449;47.666;9.160;2023-04-15T02:23:01;3.20;99.90
12771;DHT22;6449;47.666;9.160;2023-04-15T02:27:59;3.20;99.90
12771;DHT22;6449;47.666;9.160;2023-04-15T02:32:52;3.10;99.90
12771;DHT22;6449;47.666;9.160;2023-04-15T02:37:46;3.20;99.90
12771;DHT22;6449;47.666;9.160;2023-04-15T02:42:40;3.10;99.90
12771;DHT22;6449;47.666;9.160;2023-04-15T02:47:36;3.20;99.90
12771;DHT22;6449;47.666;9.160;2023-04-15T02:52:32;3.20;99.90
12771;DHT22;6449;47.666;9.160;2023-04-15T02:57:25;3.30;99.90
12771;DHT22;6449;47.666;9.160;2023-04-15T03:02:20;3.10;99.90
12771;DHT22;6449;47.666;9.160;2023-04-15T03:07:16;3.00;99.90
12771;DHT22;6449;47.666;9.160;2023-04-15T03:12:10;3.10;99.90
12771;DHT22;6449;47.666;9.160;2023-04-15T03:17:03;3.10;99.90
12771;DHT22;6449;47.666;9.160;2023-04-15T03:21:56;3.00;99.90
12771;DHT22;6449;47.666;9.160;2023-04-15T03:26:51;3.00;99.90
12771;DHT22;6449;47.666;9.160;2023-04-15T03:31:45;3.00;99.90
12771;DHT22;6449;47.666;9.160;2023-04-15T03:36:39;3.00;99.90
12771;DHT22;6449;47.666;9.160;2023-04-15T03:41:32;3.00;99.90
12771;DHT22;6449;47.666;9.160;2023-04-15T03:46:27;2.90;99.90
12771;DHT22;6449;47.666;9.160;2023-04-15T03:51:20;3.00;99.90
12771;DHT22;6449;47.666;9.160;2023-04-15T03:56:13;3.00;99.90
12771;DHT22;6449;47.666;9.160;2023-04-15T04:01:08;3.10;99.90
12771;DHT22;6449;47.666;9.160;2023-04-15T04:06:03;3.00;99.90
12771;DHT22;6449;47.666;9.160;2023-04-15T04:10:56;3.10;99.90
12771;DHT22;6449;47.666;9.160;2023-04-15T04:15:49;2.90;99.90
12771;DHT22;6449;47.666;9.160;2023-04-15T04:20:42;2.70;99.90
12771;DHT22;6449;47.666;9.160;2023-04-15T04:25:37;2.50;99.90
12771;DHT22;6449;47.666;9.160;2023-04-15T04:30:31;2.60;99.90
12771;DHT22;6449;47.666;9.160;2023-04-15T04:35:24;2.60;99.90
12771;DHT22;6449;47.666;9.160;2023-04-15T04:40:18;2.10;99.90
12771;DHT22;6449;47.666;9.160;2023-04-15T04:45:12;2.40;99.90
12771;DHT22;6449;47.666;9.160;2023-04-15T04:50:07;2.60;99.90
12771;DHT22;6449;47.666;9.160;2023-04-15T04:55:01;2.90;99.90
12771;DHT22;6449;47.666;9.160;2023-04-15T04:59:56;3.00;99.90
12771;DHT22;6449;47.666;9.160;2023-04-15T05:04:51;3.10;99.90
12771;DHT22;6449;47.666;9.160;2023-04-15T05:09:45;3.00;99.90
12771;DHT22;6449;47.666;9.160;2023-04-15T05:14:38;3.00;99.90
12771;DHT22;6449;47.666;9.160;2023-04-15T05:19:31;3.20;99.90
12771;DHT22;6449;47.666;9.160;2023-04-15T05:24:26;3.30;99.90
12771;DHT22;6449;47.666;9.160;2023-04-15T05:29:19;3.50;99.90
12771;DHT22;6449;47.666;9.160;2023-04-15T05:34:13;3.70;99.90
12771;DHT22;6449;47.666;9.160;2023-04-15T05:39:08;3.60;99.90
12771;DHT22;6449;47.666;9.160;2023-04-15T05:44:03;3.80;99.90
12771;DHT22;6449;47.666;9.160;2023-04-15T05:48:56;4.20;99.90
12771;DHT22;6449;47.666;9.160;2023-04-15T05:53:50;4.20;99.90
12771;DHT22;6449;47.666;9.160;2023-04-15T05:58:43;4.20;99.90
12771;DHT22;6449;47.666;9.160;2023-04-15T06:03:38;4.30;99.90
12771;DHT22;6449;47.666;9.160;2023-04-15T06:08:32;4.50;99.90
12771;DHT22;6449;47.666;9.160;2023-04-15T06:13:28;4.80;99.90
12771;DHT22;6449;47.666;9.160;2023-04-15T06:18:21;4.90;99.90
12771;DHT22;6449;47.666;9.160;2023-04-15T06:23:16;4.80;99.90
12771;DHT22;6449;47.666;9.160;2023-04-15T06:28:09;5.00;99.90
12771;DHT22;6449;47.666;9.160;2023-04-15T06:33:03;5.00;99.90
12771;DHT22;6449;47.666;9.160;2023-04-15T06:37:57;5.20;99.90
12771;DHT22;6449;47.666;9.160;2023-04-15T06:42:52;5.20;99.90
12771;DHT22;6449;47.666;9.160;2023-04-15T06:47:45;5.30;99.90
12771;DHT22;6449;47.666;9.160;2023-04-15T06:52:38;5.40;99.90
12771;DHT22;6449;47.666;9.160;2023-04-15T06:57:32;5.50;99.90
12771;DHT22;6449;47.666;9.160;2023-04-15T07:02:27;5.90;99.90
12771;DHT22;6449;47.666;9.160;2023-04-15T07:07:20;6.10;99.90
12771;DHT22;6449;47.666;9.160;2023-04-15T07:12:14;6.30;99.90
12771;DHT22;6449;47.666;9.160;2023-04-15T07:17:08;6.40;99.90
12771;DHT22;6449;47.666;9.160;2023-04-15T07:22:03;6.50;99.90
12771;DHT22;6449;47.666;9.160;2023-04-15T07:26:57;6.70;99.90
12771;DHT22;6449;47.666;9.160;2023-04-15T07:31:52;6.70;99.90
12771;DHT22;6449;47.666;9.160;2023-04-15T07:36:47;6.60;99.90
12771;DHT22;6449;47.666;9.160;2023-04-15T07:41:42;6.80;99.90
12771;DHT22;6449;47.666;9.160;2023-04-15T07:46:36;7.10;99.90
12771;DHT22;6449;47.666;9.160;2023-04-15T07:51:29;7.30;99.90
12771;DHT22;6449;47.666;9.160;2023-04-15T07:56:23;7.30;99.90
12771;DHT22;6449;47.666;9.160;2023-04-15T08:01:18;7.40;99.90
12771;DHT22;6449;47.666;9.160;2023-04-15T08:06:12;7.50;99.90
12771;DHT22;6449;47.666;9.160;2023-04-15T08:11:05;7.60;99.90
12771;DHT22;6449;47.666;9.160;2023-04-15T08:16:18;7.60;99.90
12771;DHT22;6449;47.666;9.160;2023-04-15T08:21:13;7.70;99.90
12771;DHT22;6449;47.666;9.160;2023-04-15T08:26:08;7.70;99.90
12771;DHT22;6449;47.666;9.160;2023-04-15T08:31:01;7.70;99.90
12771;DHT22;6449;47.666;9.160;2023-04-15T08:35:56;7.70;99.90
12771;DHT22;6449;47.666;9.160;2023-04-15T08:40:50;7.70;99.90
12771;DHT22;6449;47.666;9.160;2023-04-15T08:45:44;7.80;99.90
12771;DHT22;6449;47.666;9.160;2023-04-15T08:50:39;7.90;99.90
12771;DHT22;6449;47.666;9.160;2023-04-15T08:55:35;7.90;99.90
12771;DHT22;6449;47.666;9.160;2023-04-15T09:00:35;8.00;99.90
12771;DHT22;6449;47.666;9.160;2023-04-15T09:05:31;7.80;99.90
12771;DHT22;6449;47.666;9.160;2023-04-15T09:10:25;7.90;99.90
12771;DHT22;6449;47.666;9.160;2023-04-15T09:15:20;8.20;99.90
12771;DHT22;6449;47.666;9.160;2023-04-15T09:20:16;8.50;99.90
12771;DHT22;6449;47.666;9.160;2023-04-15T09:25:27;8.70;99.90
12771;DHT22;6449;47.666;9.160;2023-04-15T09:30:26;8.70;99.90
12771;DHT22;6449;47.666;9.160;2023-04-15T09:35:21;9.00;99.90
12771;DHT22;6449;47.666;9.160;2023-04-15T09:40:30;9.10;99.90
12771;DHT22;6449;47.666;9.160;2023-04-15T09:45:26;9.20;99.90
12771;DHT22;6449;47.666;9.160;2023-04-15T09:50:20;9.40;99.90
12771;DHT22;6449;47.666;9.160;2023-04-15T09:55:16;9.60;99.90
12771;DHT22;6449;47.666;9.160;2023-04-15T10:00:11;9.50;99.90
12771;DHT22;6449;47.666;9.160;2023-04-15T10:05:09;9.80;99.90
12771;DHT22;6449;47.666;9.160;2023-04-15T10:10:06;9.80;99.90
12771;DHT22;6449;47.666;9.160;2023-04-15T10:15:03;10.00;99.90
12771;DHT22;6449;47.666;9.160;2023-04-15T10:19:59;10.00;99.90
12771;DHT22;6449;47.666;9.160;2023-04-15T10:24:56;9.90;99.90
12771;DHT22;6449;47.666;9.160;2023-04-15T10:29:50;10.00;99.90
12771;DHT22;6449;47.666;9.160;2023-04-15T10:34:44;10.10;99.90
12771;DHT22;6449;47.666;9.160;2023-04-15T10:39:41;10.30;99.90
12771;DHT22;6449;47.666;9.160;2023-04-15T10:44:37;10.40;99.90
12771;DHT22;6449;47.666;9.160;2023-04-15T10:49:31;10.50;99.90
12771;DHT22;6449;47.666;9.160;2023-04-15T10:54:31;10.70;99.90
12771;DHT22;6449;47.666;9.160;2023-04-15T10:59:25;10.70;99.90
12771;DHT22;6449;47.666;9.160;2023-04-15T11:04:53;10.80;99.90
12771;DHT22;6449;47.666;9.160;2023-04-15T11:09:48;10.90;99.90
12771;DHT22;6449;47.666;9.160;2023-04-15T11:14:41;10.80;99.90
12771;DHT22;6449;47.666;9.160;2023-04-15T11:19:36;10.80;99.90
12771;DHT22;6449;47.666;9.160;2023-04-15T11:24:31;10.80;99.90
12771;DHT22;6449;47.666;9.160;2023-04-15T11:29:28;10.70;99.90
12771;DHT22;6449;47.666;9.160;2023-04-15T11:34:23;10.90;99.90
12771;DHT22;6449;47.666;9.160;2023-04-15T11:39:17;11.20;99.90
12771;DHT22;6449;47.666;9.160;2023-04-15T11:44:18;11.50;99.90
12771;DHT22;6449;47.666;9.160;2023-04-15T11:49:25;11.90;99.90
12771;DHT22;6449;47.666;9.160;2023-04-15T11:54:19;12.20;99.90
12771;DHT22;6449;47.666;9.160;2023-04-15T11:59:13;12.40;99.90
12771;DHT22;6449;47.666;9.160;2023-04-15T12:04:11;12.30;99.90
12771;DHT22;6449;47.666;9.160;2023-04-15T12:09:10;12.10;99.90
12771;DHT22;6449;47.666;9.160;2023-04-15T12:14:10;12.10;99.90
12771;DHT22;6449;47.666;9.160;2023-04-15T12:19:06;12.10;99.90
12771;DHT22;6449;47.666;9.160;2023-04-15T12:24:05;11.90;99.90
12771;DHT22;6449;47.666;9.160;2023-04-15T12:29:01;11.80;99.90
12771;DHT22;6449;47.666;9.160;2023-04-15T12:33:56;11.70;99.90
12771;DHT22;6449;47.666;9.160;2023-04-15T12:38:49;11.60;99.90
12771;DHT22;6449;47.666;9.160;2023-04-15T12:43:45;11.50;99.90
12771;DHT22;6449;47.666;9.160;2023-04-15T12:48:39;11.50;99.90
12771;DHT22;6449;47.666;9.160;2023-04-15T12:53:41;11.70;99.90
12771;DHT22;6449;47.666;9.160;2023-04-15T12:58:53;11.80;99.90
12771;DHT22;6449;47.666;9.160;2023-04-15T13:03:47;11.80;99.90
12771;DHT22;6449;47.666;9.160;2023-04-15T13:08:42;11.80;99.90
12771;DHT22;6449;47.666;9.160;2023-04-15T13:13:49;11.80;99.90
12771;DHT22;6449;47.666;9.160;2023-04-15T13:18:44;11.80;99.90
12771;DHT22;6449;47.666;9.160;2023-04-15T13:23:38;11.80;99.90
12771;DHT22;6449;47.666;9.160;2023-04-15T13:28:31;11.80;99.90
12771;DHT22;6449;47.666;9.160;2023-04-15T13:33:24;11.90;99.90
12771;DHT22;6449;47.666;9.160;2023-04-15T13:38:20;11.90;99.90
12771;DHT22;6449;47.666;9.160;2023-04-15T13:43:13;12.00;99.90
12771;DHT22;6449;47.666;9.160;2023-04-15T13:48:07;12.10;99.90
12771;DHT22;6449;47.666;9.160;2023-04-15T13:53:00;12.10;99.90
12771;DHT22;6449;47.666;9.160;2023-04-15T13:57:57;12.30;99.90
12771;DHT22;6449;47.666;9.160;2023-04-15T14:02:50;12.30;99.90
12771;DHT22;6449;47.666;9.160;2023-04-15T14:07:44;12.50;99.90
12771;DHT22;6449;47.666;9.160;2023-04-15T14:12:37;12.70;99.90
12771;DHT22;6449;47.666;9.160;2023-04-15T14:17:33;12.70;99.90
12771;DHT22;6449;47.666;9.160;2023-04-15T14:22:29;12.70;99.90
12771;DHT22;6449;47.666;9.160;2023-04-15T14:27:22;12.60;99.90
12771;DHT22;6449;47.666;9.160;2023-04-15T14:32:16;12.40;99.90
12771;DHT22;6449;47.666;9.160;2023-04-15T14:37:10;12.40;99.90
12771;DHT22;6449;47.666;9.160;2023-04-15T14:42:04;12.50;99.90
12771;DHT22;6449;47.666;9.160;2023-04-15T14:46:57;12.50;99.90
12771;DHT22;6449;47.666;9.160;2023-04-15T14:51:50;12.40;99.90
12771;DHT22;6449;47.666;9.160;2023-04-15T14:56:45;12.20;99.90
12771;DHT22;6449;47.666;9.160;2023-04-15T15:01:39;12.10;99.90
12771;DHT22;6449;47.666;9.160;2023-04-15T15:06:33;12.10;99.90
12771;DHT22;6449;47.666;9.160;2023-04-15T15:11:26;12.10;99.90
12771;DHT22;6449;47.666;9.160;2023-04-15T15:16:21;12.00;99.90
12771;DHT22;6449;47.666;9.160;2023-04-15T15:21:15;11.80;99.90
12771;DHT22;6449;47.666;9.160;2023-04-15T15:26:09;11.70;99.90
12771;DHT22;6449;47.666;9.160;2023-04-15T15:31:02;11.40;99.90
12771;DHT22;6449;47.666;9.160;2023-04-15T15:35:58;11.10;99.90
12771;DHT22;6449;47.666;9.160;2023-04-15T15:40:51;11.00;99.90
12771;DHT22;6449;47.666;9.160;2023-04-15T15:45:45;11.00;99.90
12771;DHT22;6449;47.666;9.160;2023-04-15T15:50:42;11.00;99.90
12771;DHT22;6449;47.666;9.160;2023-04-15T15:55:37;11.00;99.90
12771;DHT22;6449;47.666;9.160;2023-04-15T16:00:31;10.90;99.90
12771;DHT22;6449;47.666;9.160;2023-04-15T16:05:24;10.80;99.90
12771;DHT22;6449;47.666;9.160;2023-04-15T16:10:17;10.70;99.90
12771;DHT22;6449;47.666;9.160;2023-04-15T16:15:12;10.60;99.90
12771;DHT22;6449;47.666;9.160;2023-04-15T16:20:07;10.50;99.90
12771;DHT22;6449;47.666;9.160;2023-04-15T16:25:01;10.40;99.90
12771;DHT22;6449;47.666;9.160;2023-04-15T16:29:54;10.30;99.90
12771;DHT22;6449;47.666;9.160;2023-04-15T16:34:49;10.30;99.90
12771;DHT22;6449;47.666;9.160;2023-04-15T16:39:43;10.30;99.90
12771;DHT22;6449;47.666;9.160;2023-04-15T16:44:37;10.10;99.90
12771;DHT22;6449;47.666;9.160;2023-04-15T16:49:30;10.10;99.90
12771;DHT22;6449;47.666;9.160;2023-04-15T16:54:27;10.00;99.90
12771;DHT22;6449;47.666;9.160;2023-04-15T16:59:20;9.90;99.90
12771;DHT22;6449;47.666;9.160;2023-04-15T17:04:14;9.70;99.90
12771;DHT22;6449;47.666;9.160;2023-04-15T17:09:07;9.60;99.90
12771;DHT22;6449;47.666;9.160;2023-04-15T17:14:02;9.60;99.90
12771;DHT22;6449;47.666;9.160;2023-04-15T17:18:56;9.50;99.90
12771;DHT22;6449;47.666;9.160;2023-04-15T17:23:50;9.60;99.90
12771;DHT22;6449;47.666;9.160;2023-04-15T17:28:44;9.60;99.90
12771;DHT22;6449;47.666;9.160;2023-04-15T17:33:38;9.60;99.90
12771;DHT22;6449;47.666;9.160;2023-04-15T17:38:55;9.50;99.90
12771;DHT22;6449;47.666;9.160;2023-04-15T17:43:48;9.50;99.90
12771;DHT22;6449;47.666;9.160;2023-04-15T17:48:43;9.40;99.90
12771;DHT22;6449;47.666;9.160;2023-04-15T17:53:36;9.50;99.90
12771;DHT22;6449;47.666;9.160;2023-04-15T17:58:30;9.40;99.90
12771;DHT22;6449;47.666;9.160;2023-04-15T18:03:23;9.30;99.90
12771;DHT22;6449;47.666;9.160;2023-04-15T18:08:18;9.30;99.90
12771;DHT22;6449;47.666;9.160;2023-04-15T18:13:12;9.30;99.90
12771;DHT22;6449;47.666;9.160;2023-04-15T18:18:05;9.20;99.90
12771;DHT22;6449;47.666;9.160;2023-04-15T18:22:58;9.10;99.90
12771;DHT22;6449;47.666;9.160;2023-04-15T18:27:53;9.00;99.90
12771;DHT22;6449;47.666;9.160;2023-04-15T18:32:47;8.90;99.90
12771;DHT22;6449;47.666;9.160;2023-04-15T18:37:40;8.80;99.90
12771;DHT22;6449;47.666;9.160;2023-04-15T18:42:34;8.80;99.90
12771;DHT22;6449;47.666;9.160;2023-04-15T18:47:28;8.50;99.90
12771;DHT22;6449;47.666;9.160;2023-04-15T18:52:22;8.60;99.90
12771;DHT22;6449;47.666;9.160;2023-04-15T18:57:15;8.60;99.90
12771;DHT22;6449;47.666;9.160;2023-04-15T19:02:23;8.60;99.90
12771;DHT22;6449;47.666;9.160;2023-04-15T19:07:17;8.60;99.90
12771;DHT22;6449;47.666;9.160;2023-04-15T19:12:11;8.60;99.90
12771;DHT22;6449;47.666;9.160;2023-04-15T19:17:04;8.60;99.90
12771;DHT22;6449;47.666;9.160;2023-04-15T19:21:58;8.60;99.90
12771;DHT22;6449;47.666;9.160;2023-04-15T19:26:53;8.60;99.90
12771;DHT22;6449;47.666;9.160;2023-04-15T19:31:47;8.70;99.90
12771;DHT22;6449;47.666;9.160;2023-04-15T19:36:41;8.50;99.90
12771;DHT22;6449;47.666;9.160;2023-04-15T19:41:35;8.30;99.90
12771;DHT22;6449;47.666;9.160;2023-04-15T19:46:31;8.20;99.90
12771;DHT22;6449;47.666;9.160;2023-04-15T19:51:24;8.30;99.90
12771;DHT22;6449;47.666;9.160;2023-04-15T19:56:19;8.30;99.90
12771;DHT22;6449;47.666;9.160;2023-04-15T20:01:14;8.40;99.90
12771;DHT22;6449;47.666;9.160;2023-04-15T20:06:09;8.20;99.90
12771;DHT22;6449;47.666;9.160;2023-04-15T20:11:02;8.00;99.90
12771;DHT22;6449;47.666;9.160;2023-04-15T20:15:56;7.80;99.90
12771;DHT22;6449;47.666;9.160;2023-04-15T20:20:49;7.70;99.90
12771;DHT22;6449;47.666;9.160;2023-04-15T20:26:01;7.90;99.90
12771;DHT22;6449;47.666;9.160;2023-04-15T20:30:58;8.00;99.90
12771;DHT22;6449;47.666;9.160;2023-04-15T20:35:58;8.00;99.90
12771;DHT22;6449;47.666;9.160;2023-04-15T20:40:52;8.00;99.90
12771;DHT22;6449;47.666;9.160;2023-04-15T20:45:47;8.00;99.90
12771;DHT22;6449;47.666;9.160;2023-04-15T20:50:42;8.00;99.90
12771;DHT22;6449;47.666;9.160;2023-04-15T20:55:35;8.00;99.90
12771;DHT22;6449;47.666;9.160;2023-04-15T21:00:28;8.10;99.90
12771;DHT22;6449;47.666;9.160;2023-04-15T21:05:25;8.00;99.90
12771;DHT22;6449;47.666;9.160;2023-04-15T21:10:21;7.90;99.90
12771;DHT22;6449;47.666;9.160;2023-04-15T21:15:14;7.80;99.90
12771;DHT22;6449;47.666;9.160;2023-04-15T21:20:09;7.80;99.90
12771;DHT22;6449;47.666;9.160;2023-04-15T21:25:05;7.80;99.90
12771;DHT22;6449;47.666;9.160;2023-04-15T21:29:59;7.80;99.90
12771;DHT22;6449;47.666;9.160;2023-04-15T21:34:53;7.80;99.90
12771;DHT22;6449;47.666;9.160;2023-04-15T21:39:46;7.80;99.90
12771;DHT22;6449;47.666;9.160;2023-04-15T21:44:41;7.80;99.90
12771;DHT22;6449;47.666;9.160;2023-04-15T21:49:34;7.60;99.90
12771;DHT22;6449;47.666;9.160;2023-04-15T21:54:27;7.60;99.90
12771;DHT22;6449;47.666;9.160;2023-04-15T21:59:22;7.70;99.90
12771;DHT22;6449;47.666;9.160;2023-04-15T22:04:16;7.60;99.90
12771;DHT22;6449;47.666;9.160;2023-04-15T22:09:10;7.50;99.90
12771;DHT22;6449;47.666;9.160;2023-04-15T22:14:05;7.40;99.90
12771;DHT22;6449;47.666;9.160;2023-04-15T22:18:58;7.40;99.90
12771;DHT22;6449;47.666;9.160;2023-04-15T22:23:54;7.50;99.90
12771;DHT22;6449;47.666;9.160;2023-04-15T22:29:08;7.50;99.90
12771;DHT22;6449;47.666;9.160;2023-04-15T22:34:01;7.60;99.90
12771;DHT22;6449;47.666;9.160;2023-04-15T22:38:56;7.50;99.90
12771;DHT22;6449;47.666;9.160;2023-04-15T22:43:49;7.60;99.90
12771;DHT22;6449;47.666;9.160;2023-04-15T22:48:43;7.60;99.90
12771;DHT22;6449;47.666;9.160;2023-04-15T22:53:36;7.50;99.90
12771;DHT22;6449;47.666;9.160;2023-04-15T22:58:31;7.50;99.90
12771;DHT22;6449;47.666;9.160;2023-04-15T23:03:24;7.50;99.90
12771;DHT22;6449;47.666;9.160;2023-04-15T23:08:18;7.50;99.90
12771;DHT22;6449;47.666;9.160;2023-04-15T23:13:14;7.40;99.90
12771;DHT22;6449;47.666;9.160;2023-04-15T23:18:09;7.30;99.90
12771;DHT22;6449;47.666;9.160;2023-04-15T23:23:02;7.30;99.90
12771;DHT22;6449;47.666;9.160;2023-04-15T23:27:56;7.20;99.90
12771;DHT22;6449;47.666;9.160;2023-04-15T23:32:49;7.20;99.90
12771;DHT22;6449;47.666;9.160;2023-04-15T23:37:44;7.20;99.90
12771;DHT22;6449;47.666;9.160;2023-04-15T23:42:37;7.20;99.90
12771;DHT22;6449;47.666;9.160;2023-04-15T23:47:30;7.20;99.90
12771;DHT22;6449;47.666;9.160;2023-04-15T23:52:24;7.10;99.90
12771;DHT22;6449;47.666;9.160;2023-04-15T23:57:18;7.10;99.90
